Time;durP1;ratioP1;P1;durP2;ratioP2;P2;SDS_P1;SDS_P2;PMS_P1;PMS_P2;Temp;Humidity;BMP_temperature;BMP_pressure;BME280_temperature;BME280_humidity;BME280_pressure;Samples;Min_cycle;Max_cycle;Signal;HPM_P1;HPM_P2
2022/08/23 00:01:22;;;;;;;5.75;4.07;;;18.10;99.90;;;;;;4975588;28;20477;-83
2022/08/23 00:03:49;;;;;;;5.55;4.57;;;18.30;99.90;;;;;;4974669;28;20063;-83
2022/08/23 00:06:16;;;;;;;6.78;4.30;;;18.10;99.90;;;;;;4975700;28;20050;-84
2022/08/23 00:08:42;;;;;;;5.75;4.03;;;18.30;99.90;;;;;;4975521;28;20042;-83
2022/08/23 00:11:26;;;;;;;5.10;3.67;;;18.00;99.90;;;;;;4974861;28;20046;-83
2022/08/23 00:13:53;;;;;;;6.10;3.80;;;18.20;99.90;;;;;;4975271;28;20054;-83
2022/08/23 00:16:19;;;;;;;4.25;3.70;;;18.10;99.90;;;;;;4975322;28;20109;-83
2022/08/23 00:18:44;;;;;;;6.53;3.65;;;18.00;99.90;;;;;;4975766;28;20050;-85
2022/08/23 00:21:12;;;;;;;4.93;3.70;;;18.00;99.90;;;;;;4974733;28;20415;-84
2022/08/23 00:23:38;;;;;;;4.78;3.63;;;18.00;99.90;;;;;;4975524;28;20380;-84
2022/08/23 00:26:04;;;;;;;4.63;3.53;;;18.10;99.90;;;;;;4990167;28;20100;-83
2022/08/23 00:28:30;;;;;;;5.13;3.40;;;17.80;99.90;;;;;;4974289;28;20078;-84
2022/08/23 00:30:57;;;;;;;6.80;3.60;;;17.80;99.90;;;;;;4975112;28;20149;-83
2022/08/23 00:33:23;;;;;;;6.05;3.95;;;17.80;99.90;;;;;;4958042;28;20043;-83
2022/08/23 00:35:49;;;;;;;4.25;3.58;;;17.90;99.90;;;;;;4975189;28;20051;-84
2022/08/23 00:38:14;;;;;;;4.25;3.38;;;17.90;99.90;;;;;;4974112;28;20046;-84
2022/08/23 00:40:46;;;;;;;5.55;3.70;;;17.80;99.90;;;;;;4989996;28;20053;-84
2022/08/23 00:48:52;;;;;;;5.57;3.97;;;17.80;99.90;;;;;;4974077;28;20050;-84
2022/08/23 00:51:28;;;;;;;7.10;3.80;;;17.70;99.90;;;;;;4974906;28;20054;-86
2022/08/23 00:53:57;;;;;;;6.57;4.05;;;17.70;99.90;;;;;;4974805;28;20050;-84
2022/08/23 00:56:25;;;;;;;7.70;4.75;;;17.80;99.90;;;;;;4973669;28;20065;-84
2022/08/23 00:58:52;;;;;;;6.68;4.78;;;17.60;99.90;;;;;;4973429;28;20569;-83
2022/08/23 01:01:17;;;;;;;5.22;4.63;;;17.60;99.90;;;;;;4974436;28;20068;-83
2022/08/23 01:03:49;;;;;;;7.65;4.60;;;17.60;99.90;;;;;;4974894;28;20074;-84
2022/08/23 01:06:37;;;;;;;6.38;4.88;;;17.60;99.90;;;;;;4974858;28;20058;-84
2022/08/23 01:09:10;;;;;;;8.10;4.88;;;17.70;99.90;;;;;;4974802;28;20043;-84
2022/08/23 01:11:42;;;;;;;6.00;4.65;;;17.60;99.90;;;;;;4974326;28;20110;-84
2022/08/23 01:14:13;;;;;;;8.23;4.75;;;17.50;99.90;;;;;;4973233;28;20062;-84
2022/08/23 01:16:44;;;;;;;6.72;4.50;;;17.70;99.90;;;;;;4974477;28;20042;-83
2022/08/23 01:19:18;;;;;;;7.43;4.50;;;17.60;99.90;;;;;;4974885;28;20051;-83
2022/08/23 01:21:56;;;;;;;6.55;4.40;;;17.50;99.90;;;;;;4973603;28;20602;-83
2022/08/23 01:24:22;;;;;;;6.25;4.60;;;17.70;99.90;;;;;;4974568;28;20043;-84
2022/08/23 01:26:49;;;;;;;7.45;4.28;;;17.60;99.90;;;;;;4973406;28;20055;-83
2022/08/23 01:29:16;;;;;;;7.65;4.82;;;17.50;99.90;;;;;;4974363;28;20101;-83
2022/08/23 01:31:42;;;;;;;7.13;5.15;;;17.70;99.90;;;;;;4974659;28;20073;-84
2022/08/23 01:34:11;;;;;;;6.53;4.95;;;17.70;99.90;;;;;;4989095;28;20514;-83
2022/08/23 01:36:37;;;;;;;6.82;5.40;;;17.60;99.90;;;;;;4974319;28;20097;-84
2022/08/23 01:39:04;;;;;;;6.63;5.10;;;17.60;99.90;;;;;;4957366;28;20047;-83
2022/08/23 01:41:30;;;;;;;8.82;5.05;;;17.40;99.90;;;;;;4972673;28;20491;-83
2022/08/23 01:43:56;;;;;;;6.20;5.07;;;17.50;99.90;;;;;;4974218;28;20117;-83
2022/08/23 01:46:25;;;;;;;8.32;5.65;;;17.60;99.90;;;;;;4973459;28;20134;-82
2022/08/23 01:48:57;;;;;;;6.32;4.90;;;17.60;99.90;;;;;;4974314;28;20411;-82
2022/08/23 01:51:23;;;;;;;6.70;5.13;;;17.50;99.90;;;;;;4974421;28;20058;-82
2022/08/23 01:53:49;;;;;;;6.43;4.38;;;17.50;99.90;;;;;;4974205;28;20047;-83
2022/08/23 01:56:20;;;;;;;5.38;4.78;;;17.50;99.90;;;;;;4973083;28;20054;-84
2022/08/23 01:58:47;;;;;;;6.78;5.10;;;17.40;99.90;;;;;;4974772;28;20104;-83
2022/08/23 02:01:12;;;;;;;7.28;5.18;;;17.40;99.90;;;;;;4973259;28;20109;-82
2022/08/23 02:03:38;;;;;;;6.45;5.18;;;17.30;99.90;;;;;;4989222;28;20042;-84
2022/08/23 02:06:05;;;;;;;7.80;5.13;;;17.50;99.90;;;;;;4973284;28;20580;-83
2022/08/23 02:11:20;;;;;;;5.57;5.00;;;17.30;99.90;;;;;;4973777;28;20487;-83
2022/08/23 02:13:48;;;;;;;6.88;5.18;;;17.20;99.90;;;;;;4976851;28;20066;-84
2022/08/23 02:16:27;;;;;;;5.38;4.88;;;17.30;99.90;;;;;;4976408;28;20047;-83
2022/08/23 02:18:55;;;;;;;7.22;4.93;;;17.30;99.90;;;;;;4976488;28;20138;-84
2022/08/23 02:21:21;;;;;;;5.68;4.93;;;17.20;99.90;;;;;;4977312;28;20047;-83
2022/08/23 02:23:47;;;;;;;7.15;5.18;;;17.40;99.90;;;;;;4992460;28;20039;-84
2022/08/23 02:26:13;;;;;;;7.65;5.38;;;17.20;99.90;;;;;;4977321;28;20086;-84
2022/08/23 02:28:39;;;;;;;6.32;4.93;;;17.20;99.90;;;;;;4977470;28;20083;-84
2022/08/23 02:31:05;;;;;;;5.63;4.25;;;17.10;99.90;;;;;;4977193;28;20129;-84
2022/08/23 02:33:31;;;;;;;4.90;4.43;;;17.00;99.90;;;;;;4977261;28;20125;-83
2022/08/23 02:35:57;;;;;;;5.97;5.32;;;17.10;99.90;;;;;;4977174;28;20039;-81
2022/08/23 02:38:23;;;;;;;5.82;5.10;;;16.90;99.90;;;;;;4977291;28;20051;-82
2022/08/23 02:40:48;;;;;;;5.68;4.97;;;17.00;99.90;;;;;;4977320;28;20509;-82
2022/08/23 02:43:14;;;;;;;5.93;5.10;;;17.10;99.90;;;;;;4975777;28;20058;-82
2022/08/23 02:45:40;;;;;;;7.65;5.22;;;17.20;99.90;;;;;;4977360;28;20501;-82
2022/08/23 02:48:07;;;;;;;6.90;5.72;;;17.20;99.90;;;;;;4975908;28;20046;-82
2022/08/23 02:50:34;;;;;;;7.18;5.50;;;16.90;99.90;;;;;;4976958;28;20109;-82
2022/08/23 02:53:00;;;;;;;6.43;5.28;;;17.10;99.90;;;;;;4975661;28;20042;-83
2022/08/23 02:55:26;;;;;;;7.18;5.97;;;17.00;99.90;;;;;;4975658;28;20053;-83
2022/08/23 02:57:52;;;;;;;7.25;5.22;;;17.00;99.90;;;;;;4977006;28;20047;-83
2022/08/23 03:00:18;;;;;;;6.70;4.80;;;17.00;99.90;;;;;;4991713;28;20049;-82
2022/08/23 03:02:44;;;;;;;5.82;5.20;;;16.90;99.90;;;;;;4975696;28;20475;-82
2022/08/23 03:05:11;;;;;;;5.55;4.95;;;16.80;99.90;;;;;;4991371;28;20066;-82
2022/08/23 03:07:38;;;;;;;6.90;5.38;;;16.80;99.90;;;;;;4976706;28;20459;-82
2022/08/23 03:10:05;;;;;;;8.77;5.45;;;16.70;99.90;;;;;;4975589;28;20042;-82
2022/08/23 03:12:32;;;;;;;6.63;5.57;;;16.90;99.90;;;;;;4991014;28;20055;-82
2022/08/23 03:14:57;;;;;;;6.68;5.60;;;16.80;99.90;;;;;;4991280;28;20138;-82
2022/08/23 03:17:23;;;;;;;7.75;5.18;;;16.90;99.90;;;;;;4975384;28;20125;-82
2022/08/23 03:19:51;;;;;;;7.97;5.78;;;16.90;99.90;;;;;;4975444;28;20052;-82
2022/08/23 03:22:17;;;;;;;7.28;5.97;;;16.70;99.90;;;;;;4975391;28;20110;-82
2022/08/23 03:24:43;;;;;;;6.38;5.78;;;16.80;99.90;;;;;;4976431;28;20047;-82
2022/08/23 03:27:10;;;;;;;6.53;5.82;;;16.70;99.90;;;;;;4975239;28;20082;-83
2022/08/23 03:29:36;;;;;;;8.43;5.55;;;16.70;99.90;;;;;;4975114;28;20125;-82
2022/08/23 03:32:03;;;;;;;6.32;5.63;;;16.60;99.90;;;;;;4975285;28;20047;-82
2022/08/23 03:34:30;;;;;;;7.57;5.90;;;16.80;99.90;;;;;;4975806;28;20086;-81
2022/08/23 03:36:55;;;;;;;9.65;6.10;;;16.70;99.90;;;;;;4976200;28;20420;-83
2022/08/23 03:39:22;;;;;;;6.10;5.30;;;16.70;99.90;;;;;;4976066;28;20130;-82
2022/08/23 03:41:47;;;;;;;6.22;4.93;;;16.70;99.90;;;;;;4974462;28;20059;-82
2022/08/23 03:44:13;;;;;;;6.90;5.32;;;16.80;99.90;;;;;;4975959;28;20545;-82
2022/08/23 03:46:39;;;;;;;7.57;5.00;;;16.60;99.90;;;;;;4958805;28;20055;-81
2022/08/23 03:49:05;;;;;;;4.93;4.25;;;16.70;99.90;;;;;;4975917;28;20054;-81
2022/08/23 03:51:32;;;;;;;5.82;5.00;;;16.60;99.90;;;;;;4974862;28;20059;-82
2022/08/23 03:53:59;;;;;;;7.00;5.60;;;16.70;99.90;;;;;;4975598;28;20047;-82
2022/08/23 03:56:28;;;;;;;7.38;5.60;;;16.50;99.90;;;;;;4975915;28;20134;-82
2022/08/23 03:58:54;;;;;;;6.18;5.40;;;16.50;99.90;;;;;;4974522;28;20086;-83
2022/08/23 04:01:21;;;;;;;10.95;6.13;;;16.40;99.90;;;;;;4975642;28;20439;-82
2022/08/23 04:03:47;;;;;;;6.80;5.93;;;16.50;99.90;;;;;;4975425;28;20498;-83
2022/08/23 04:06:13;;;;;;;6.78;6.07;;;16.50;99.90;;;;;;4990475;28;20100;-82
2022/08/23 04:08:39;;;;;;;8.20;5.90;;;16.40;99.90;;;;;;4975569;28;20051;-82
2022/08/23 04:11:05;;;;;;;8.57;6.50;;;16.50;99.90;;;;;;4975448;28;20054;-82
2022/08/23 04:13:31;;;;;;;11.57;7.35;;;16.40;99.90;;;;;;4957372;28;20067;-82
2022/08/23 04:15:57;;;;;;;8.90;7.60;;;16.60;99.90;;;;;;4975229;28;20082;-82
2022/08/23 04:18:23;;;;;;;10.40;7.63;;;16.40;99.90;;;;;;4975490;28;20045;-82
2022/08/23 04:20:49;;;;;;;11.60;7.63;;;16.40;99.90;;;;;;4974052;28;20093;-82
2022/08/23 04:23:15;;;;;;;9.35;7.35;;;16.50;99.90;;;;;;4975157;28;20045;-81
2022/08/23 04:25:44;;;;;;;8.98;8.07;;;16.40;99.90;;;;;;4975041;28;20054;-81
2022/08/23 04:28:10;;;;;;;10.35;8.07;;;16.40;99.90;;;;;;4974106;28;20479;-81
2022/08/23 04:30:36;;;;;;;15.90;11.73;;;16.40;99.90;;;;;;4974910;28;20117;-81
2022/08/23 04:33:03;;;;;;;11.90;10.45;;;16.40;99.90;;;;;;4974052;28;20043;-82
2022/08/23 04:35:28;;;;;;;11.27;9.77;;;16.40;99.90;;;;;;4974653;28;20051;-82
2022/08/23 04:37:54;;;;;;;12.85;10.27;;;16.40;99.90;;;;;;4975211;28;20439;-80
2022/08/23 04:43:07;;;;;;;14.50;10.40;;;16.60;99.90;;;;;;4974283;28;20054;-81
2022/08/23 04:45:33;;;;;;;14.02;10.68;;;16.50;99.90;;;;;;4974943;28;20055;-81
2022/08/23 04:47:59;;;;;;;13.95;10.63;;;16.50;99.90;;;;;;4974892;28;20049;-81
2022/08/23 04:50:24;;;;;;;12.45;10.75;;;16.40;99.90;;;;;;4973789;28;20129;-82
2022/08/23 04:52:50;;;;;;;13.25;10.75;;;16.40;99.90;;;;;;4974082;28;20047;-82
2022/08/23 04:55:16;;;;;;;11.80;10.60;;;16.40;99.90;;;;;;4974805;28;20130;-82
2022/08/23 04:57:42;;;;;;;12.95;10.93;;;16.50;99.90;;;;;;4973689;28;20050;-81
2022/08/23 05:00:11;;;;;;;12.20;10.90;;;16.50;99.90;;;;;;4974433;28;20129;-81
2022/08/23 05:02:37;;;;;;;13.88;11.07;;;16.50;99.90;;;;;;4973606;28;20131;-81
2022/08/23 05:05:04;;;;;;;12.70;10.65;;;16.60;99.90;;;;;;4974681;28;20130;-81
2022/08/23 05:07:30;;;;;;;13.40;11.20;;;16.40;99.90;;;;;;4974715;28;20489;-82
2022/08/23 05:09:56;;;;;;;14.55;10.73;;;16.60;99.90;;;;;;4973648;28;20134;-82
2022/08/23 05:12:22;;;;;;;13.55;10.95;;;16.50;99.90;;;;;;4973896;28;20047;-82
2022/08/23 05:14:48;;;;;;;12.63;11.32;;;16.50;99.90;;;;;;4972805;28;20058;-83
2022/08/23 05:17:14;;;;;;;14.38;11.93;;;16.50;99.90;;;;;;4974620;28;20054;-82
2022/08/23 05:19:39;;;;;;;14.38;12.88;;;16.50;99.90;;;;;;4974741;28;20078;-82
2022/08/23 05:22:05;;;;;;;18.70;14.02;;;16.60;99.90;;;;;;4989404;28;20518;-82
2022/08/23 05:24:31;;;;;;;16.60;12.85;;;16.70;99.90;;;;;;4973597;28;20062;-82
2022/08/23 05:26:56;;;;;;;14.23;12.73;;;16.80;99.90;;;;;;4974437;28;20050;-82
2022/08/23 05:29:22;;;;;;;13.85;12.50;;;17.10;99.90;;;;;;4973501;28;20053;-82
2022/08/23 05:31:48;;;;;;;14.95;13.00;;;16.80;99.90;;;;;;4989464;28;20546;-82
2022/08/23 05:34:14;;;;;;;14.77;13.27;;;16.90;99.90;;;;;;4974247;28;20126;-82
2022/08/23 05:36:40;;;;;;;14.80;13.30;;;16.90;99.90;;;;;;4974226;28;20051;-82
2022/08/23 05:39:06;;;;;;;15.98;13.90;;;16.90;99.90;;;;;;4974320;28;20047;-82
2022/08/23 05:41:32;;;;;;;15.82;14.20;;;17.00;99.90;;;;;;4956689;28;20142;-82
2022/08/23 05:43:58;;;;;;;17.10;14.63;;;17.10;99.90;;;;;;4974747;28;20081;-82
2022/08/23 05:46:23;;;;;;;16.50;14.85;;;17.20;99.90;;;;;;4957761;28;20506;-82
2022/08/23 05:48:50;;;;;;;16.13;14.45;;;17.10;99.90;;;;;;4975710;28;20132;-82
2022/08/23 05:51:17;;;;;;;16.35;14.52;;;17.10;99.90;;;;;;4977876;28;20561;-82
2022/08/23 05:53:44;;;;;;;14.73;13.20;;;17.40;99.90;;;;;;4976817;28;20050;-83
2022/08/23 05:56:42;;;;;;;15.40;13.00;;;17.30;99.90;;;;;;4977806;28;20486;-82
2022/08/23 05:59:10;;;;;;;19.42;13.40;;;17.30;99.90;;;;;;4964395;28;20525;-83
2022/08/23 06:01:37;;;;;;;15.30;13.75;;;17.40;99.90;;;;;;4977026;28;20057;-82
2022/08/23 06:04:05;;;;;;;14.20;12.15;;;17.40;99.90;;;;;;4992839;28;20442;-81
2022/08/23 06:06:33;;;;;;;15.30;12.38;;;17.60;99.90;;;;;;4960787;28;20055;-82
2022/08/23 06:08:59;;;;;;;15.07;11.27;;;17.60;99.90;;;;;;4960926;28;20051;-82
2022/08/23 06:11:27;;;;;;;14.68;11.57;;;17.50;99.90;;;;;;4977256;28;20510;-81
2022/08/23 06:13:56;;;;;;;13.60;11.43;;;17.60;99.90;;;;;;4977459;28;20141;-81
2022/08/23 06:16:29;;;;;;;13.30;12.07;;;17.70;99.90;;;;;;4992461;28;20109;-81
2022/08/23 06:18:56;;;;;;;14.45;12.05;;;17.90;99.90;;;;;;4977781;28;20061;-82
2022/08/23 06:21:24;;;;;;;10.77;9.65;;;17.90;99.90;;;;;;4977419;28;20498;-81
2022/08/23 06:23:50;;;;;;;10.73;9.82;;;17.90;99.90;;;;;;4977608;28;20053;-81
2022/08/23 06:26:19;;;;;;;12.02;10.82;;;18.00;99.90;;;;;;4976538;28;20054;-81
2022/08/23 06:28:47;;;;;;;11.63;10.52;;;18.10;99.90;;;;;;4977388;28;20045;-81
2022/08/23 06:31:13;;;;;;;11.32;10.18;;;18.10;99.90;;;;;;4976254;28;20055;-82
2022/08/23 06:33:41;;;;;;;10.98;9.88;;;18.10;99.90;;;;;;4959951;28;20043;-82
2022/08/23 06:36:12;;;;;;;13.18;9.95;;;18.20;99.90;;;;;;4977189;28;20055;-81
2022/08/23 06:38:40;;;;;;;10.23;9.32;;;18.30;99.90;;;;;;4977361;28;20053;-82
2022/08/23 06:41:11;;;;;;;11.00;9.88;;;18.30;99.90;;;;;;4977008;28;20105;-82
2022/08/23 06:43:38;;;;;;;10.88;9.88;;;18.30;99.90;;;;;;4976427;28;20042;-83
2022/08/23 06:46:11;;;;;;;10.07;9.18;;;18.30;99.90;;;;;;4976949;28;20051;-81
2022/08/23 06:48:37;;;;;;;11.43;9.50;;;18.30;99.90;;;;;;4977043;28;20049;-81
2022/08/23 06:51:09;;;;;;;12.32;9.60;;;18.30;99.90;;;;;;4977204;28;20043;-81
2022/08/23 06:53:35;;;;;;;10.20;9.18;;;18.40;99.90;;;;;;4976936;28;20047;-82
2022/08/23 06:56:01;;;;;;;10.45;9.40;;;18.40;99.90;;;;;;4991847;28;20486;-82
2022/08/23 06:58:27;;;;;;;9.45;8.48;;;18.50;99.90;;;;;;4976509;28;20522;-81
2022/08/23 07:00:53;;;;;;;9.45;8.50;;;18.40;99.90;;;;;;4959470;28;20046;-82
2022/08/23 07:03:18;;;;;;;9.98;8.98;;;18.50;99.90;;;;;;4976747;28;20062;-82
2022/08/23 07:05:44;;;;;;;9.38;8.50;;;18.60;99.90;;;;;;4976526;28;20051;-82
2022/08/23 07:08:10;;;;;;;8.95;7.97;;;18.60;99.90;;;;;;4976709;28;20051;-81
2022/08/23 07:10:35;;;;;;;8.77;7.97;;;18.60;99.90;;;;;;4976789;28;20495;-81
2022/08/23 07:13:02;;;;;;;8.27;7.47;;;18.70;99.90;;;;;;4975763;28;20042;-82
2022/08/23 07:15:28;;;;;;;10.82;7.75;;;18.80;99.90;;;;;;4975255;28;20062;-81
2022/08/23 07:17:55;;;;;;;11.10;7.78;;;18.90;99.90;;;;;;4976586;28;20602;-79
2022/08/23 07:20:20;;;;;;;8.07;7.18;;;19.00;99.90;;;;;;4975282;28;20097;-80
2022/08/23 07:22:46;;;;;;;7.07;6.43;;;18.90;99.90;;;;;;4976313;28;20086;-79
2022/08/23 07:25:12;;;;;;;8.13;6.85;;;19.00;99.90;;;;;;4975110;28;20086;-80
2022/08/23 07:27:37;;;;;;;7.22;6.53;;;19.10;99.90;;;;;;4975023;28;20054;-80
2022/08/23 07:30:05;;;;;;;8.65;6.55;;;19.20;99.90;;;;;;4976071;28;20133;-78
2022/08/23 07:32:30;;;;;;;10.35;5.75;;;19.30;99.90;;;;;;4975253;28;20069;-80
2022/08/23 07:34:56;;;;;;;7.22;6.10;;;19.30;99.90;;;;;;4976271;28;20050;-79
2022/08/23 07:37:22;;;;;;;7.82;4.90;;;19.40;99.90;;;;;;4976210;28;20078;-78
2022/08/23 07:39:47;;;;;;;5.30;4.80;;;19.50;99.90;;;;;;4976459;28;20129;-78
2022/08/23 07:42:13;;;;;;;7.05;4.82;;;19.50;99.90;;;;;;4975652;28;20112;-78
2022/08/23 07:44:39;;;;;;;4.90;4.40;;;19.80;99.90;;;;;;4975916;28;20053;-77
2022/08/23 07:47:05;;;;;;;4.68;4.28;;;19.70;99.90;;;;;;4975090;28;20039;-78
2022/08/23 07:49:30;;;;;;;5.13;4.25;;;19.30;99.90;;;;;;4975172;28;20082;-78
2022/08/23 07:51:57;;;;;;;5.72;5.22;;;20.00;99.90;;;;;;4976159;28;20043;-79
2022/08/23 07:54:24;;;;;;;5.30;4.25;;;19.80;99.90;;;;;;4974754;28;20046;-79
2022/08/23 07:56:50;;;;;;;7.55;4.80;;;19.90;99.90;;;;;;4975869;28;20104;-80
2022/08/23 07:59:16;;;;;;;5.57;4.75;;;20.10;99.90;;;;;;4974435;28;20055;-78
2022/08/23 08:01:43;;;;;;;5.63;4.85;;;20.20;99.90;;;;;;4975775;28;20047;-78
2022/08/23 08:04:09;;;;;;;5.18;4.68;;;20.40;99.90;;;;;;4975594;28;20379;-77
2022/08/23 08:06:48;;;;;;;7.45;4.82;;;20.10;99.90;;;;;;4975839;28;20053;-77
2022/08/23 08:09:15;;;;;;;7.35;4.95;;;20.20;99.90;;;;;;4974806;28;20055;-79
2022/08/23 08:11:46;;;;;;;5.82;5.25;;;20.30;99.90;;;;;;4973155;28;20046;-75
2022/08/23 08:14:12;;;;;;;7.43;5.38;;;20.50;99.90;;;;;;4975229;28;20487;-76
2022/08/23 08:16:41;;;;;;;5.95;5.15;;;20.40;99.90;;;;;;4974415;28;20089;-84
2022/08/23 08:19:09;;;;;;;5.82;4.25;;;20.60;99.90;;;;;;4974956;28;20059;-80
2022/08/23 08:21:38;;;;;;;4.93;4.45;;;20.50;99.90;;;;;;4975548;28;20049;-80
2022/08/23 08:24:05;;;;;;;4.85;4.13;;;20.50;99.90;;;;;;4975298;28;20427;-80
2022/08/23 08:26:31;;;;;;;5.97;4.30;;;20.80;99.90;;;;;;4975230;28;20059;-81
2022/08/23 08:28:57;;;;;;;5.78;4.32;;;20.90;99.90;;;;;;4975324;28;20051;-79
2022/08/23 08:31:24;;;;;;;6.78;3.80;;;21.00;99.90;;;;;;4974312;28;20055;-80
2022/08/23 08:33:51;;;;;;;4.90;4.40;;;20.80;99.90;;;;;;4974071;28;20047;-79
2022/08/23 08:36:30;;;;;;;4.57;4.07;;;20.90;99.90;;;;;;4975112;28;20129;-81
2022/08/23 08:38:56;;;;;;;4.55;4.15;;;21.10;99.90;;;;;;4975146;28;20058;-78
2022/08/23 08:41:43;;;;;;;4.78;3.92;;;21.10;99.90;;;;;;4968798;28;20051;-77
2022/08/23 08:44:30;;;;;;;4.65;3.88;;;21.10;99.90;;;;;;4965489;28;20034;-77
2022/08/23 08:46:56;;;;;;;5.10;3.33;;;21.10;99.90;;;;;;4964162;28;20043;-76
2022/08/23 08:49:59;;;;;;;4.55;4.03;;;21.10;99.90;;;;;;4966091;28;20045;-76
2022/08/23 08:52:29;;;;;;;4.10;3.45;;;21.40;99.90;;;;;;4962726;28;20049;-78
2022/08/23 08:55:09;;;;;;;5.10;4.57;;;21.30;99.90;;;;;;4963291;28;20043;-78
2022/08/23 08:57:42;;;;;;;5.55;3.72;;;21.30;99.90;;;;;;4963314;28;20104;-79
2022/08/23 09:00:12;;;;;;;;;;;21.50;99.90;;;;;;4965940;28;20043;-77
2022/08/23 09:02:39;;;;;;;6.10;3.72;;;21.60;99.90;;;;;;4965393;28;19922;-78
2022/08/23 09:05:17;;;;;;;5.10;3.72;;;21.60;99.90;;;;;;4962399;28;20058;-79
2022/08/23 09:07:55;;;;;;;9.52;3.30;;;21.60;99.90;;;;;;4963448;28;20047;-78
2022/08/23 09:10:45;;;;;;;3.45;3.15;;;21.60;99.90;;;;;;4962746;28;20051;-79
2022/08/23 09:13:26;;;;;;;4.07;3.78;;;21.90;99.90;;;;;;4963711;28;20128;-79
2022/08/23 09:16:10;;;;;;;5.43;3.33;;;21.80;99.90;;;;;;4964388;28;20055;-78
2022/08/23 09:18:37;;;;;;;4.97;3.05;;;21.90;99.90;;;;;;4963748;28;20488;-78
2022/08/23 09:21:07;;;;;;;3.72;3.42;;;21.90;99.90;;;;;;4965936;28;20051;-78
2022/08/23 09:23:40;;;;;;;4.30;3.67;;;22.10;99.90;;;;;;4968253;28;20462;-77
2022/08/23 09:26:16;;;;;;;3.63;3.33;;;22.20;99.90;;;;;;4966302;28;20082;-78
2022/08/23 09:28:44;;;;;;;3.80;3.35;;;22.10;99.90;;;;;;4967323;28;20415;-78
2022/08/23 09:31:09;;;;;;;4.85;4.05;;;22.20;99.90;;;;;;4966835;28;20140;-78
2022/08/23 09:33:41;;;;;;;4.53;2.88;;;22.20;99.90;;;;;;4966267;28;20126;-79
2022/08/23 09:36:30;;;;;;;5.03;3.65;;;22.20;99.90;;;;;;4969014;28;20516;-79
2022/08/23 09:38:58;;;;;;;3.45;3.15;;;22.30;99.90;;;;;;4970553;28;20517;-78
2022/08/23 09:41:47;;;;;;;5.05;3.08;;;22.30;99.90;;;;;;4956944;28;20474;-79
2022/08/23 09:44:39;;;;;;;4.05;3.60;;;22.20;99.90;;;;;;4970321;28;20137;-77
2022/08/23 09:47:16;;;;;;;6.10;3.38;;;22.40;99.90;;;;;;4970472;28;20804;-78
2022/08/23 09:49:44;;;;;;;6.43;3.35;;;22.50;99.90;;;;;;4966966;28;20087;-79
2022/08/23 09:52:25;;;;;;;4.22;2.95;;;22.60;99.90;;;;;;4968702;28;20122;-79
2022/08/23 09:55:28;;;;;;;5.13;3.22;;;22.50;99.90;;;;;;4968908;28;20074;-78
2022/08/23 09:57:55;;;;;;;5.93;3.00;;;;;;;;;;4958803;28;20065;-78
2022/08/23 10:00:28;;;;;;;5.20;2.95;;;22.80;99.90;;;;;;4967392;28;20042;-78
2022/08/23 10:02:56;;;;;;;2.90;2.70;;;22.60;99.90;;;;;;4968157;28;20477;-79
2022/08/23 10:05:36;;;;;;;3.53;3.20;;;22.70;99.90;;;;;;4964940;28;20058;-78
2022/08/23 10:08:03;;;;;;;4.78;3.63;;;23.00;99.90;;;;;;4964896;28;20063;-79
2022/08/23 10:10:50;;;;;;;3.72;2.45;;;23.10;99.90;;;;;;4967834;28;20035;-78
2022/08/23 10:13:16;;;;;;;4.47;2.88;;;23.20;99.90;;;;;;4948635;28;20046;-80
2022/08/23 10:16:02;;;;;;;2.70;2.10;;;23.10;99.90;;;;;;4971965;28;20057;-83
2022/08/23 10:18:50;;;;;;;3.38;2.15;;;23.10;99.90;;;;;;4950196;28;20053;-80
2022/08/23 10:21:42;;;;;;;3.22;2.53;;;23.40;99.90;;;;;;4971844;28;20050;-79
2022/08/23 10:24:46;;;;;;;3.55;2.03;;;23.50;99.90;;;;;;4969484;28;20082;-78
2022/08/23 10:30:32;;;;;;;3.92;2.28;;;23.60;99.90;;;;;;4971099;28;20058;-79
2022/08/23 10:33:07;;;;;;;4.63;2.08;;;23.60;99.90;;;;;;4966337;28;20140;-80
2022/08/23 10:35:45;;;;;;;4.15;2.10;;;23.70;99.90;;;;;;4967964;28;20047;-78
2022/08/23 10:38:45;;;;;;;3.33;2.17;;;23.70;99.90;;;;;;4965625;28;20046;-78
2022/08/23 10:41:44;;;;;;;3.60;2.45;;;23.60;99.90;;;;;;4942074;28;20054;-81
2022/08/23 10:44:24;;;;;;;4.78;2.40;;;23.80;99.90;;;;;;4970280;28;20414;-79
2022/08/23 10:47:20;;;;;;;2.92;1.98;;;23.90;99.90;;;;;;4966712;28;20046;-82
2022/08/23 10:49:49;;;;;;;4.00;2.22;;;24.00;99.90;;;;;;4945957;28;20570;-79
2022/08/23 10:52:21;;;;;;;2.47;1.83;;;24.10;99.90;;;;;;4965701;28;20058;-79
2022/08/23 10:54:59;;;;;;;3.47;2.20;;;24.10;99.90;;;;;;4968731;28;20458;-80
2022/08/23 10:57:39;;;;;;;4.18;1.95;;;24.10;99.90;;;;;;4966949;28;20074;-80
2022/08/23 11:00:17;;;;;;;4.43;1.83;;;24.20;99.90;;;;;;4953624;28;20476;-81
2022/08/23 11:02:54;;;;;;;2.08;1.63;;;24.30;99.90;;;;;;4952036;28;20051;-81
2022/08/23 11:05:20;;;;;;;3.80;2.08;;;24.30;99.90;;;;;;4969864;28;20122;-79
2022/08/23 11:08:03;;;;;;;4.25;2.15;;;24.30;99.90;;;;;;4968606;28;20567;-80
2022/08/23 11:10:40;;;;;;;2.97;1.65;;;24.40;99.90;;;;;;4985266;28;20106;-76
2022/08/23 11:13:11;;;;;;;4.75;2.30;;;24.40;99.90;;;;;;4966394;28;20130;-78
2022/08/23 11:15:44;;;;;;;3.57;2.10;;;24.40;99.90;;;;;;4966909;28;20059;-78
2022/08/23 11:18:29;;;;;;;2.97;2.05;;;24.50;99.90;;;;;;4966028;28;20121;-80
2022/08/23 11:21:00;;;;;;;2.67;1.77;;;24.50;99.90;;;;;;4963832;28;20103;-80
2022/08/23 11:23:48;;;;;;;3.28;1.77;;;24.60;99.90;;;;;;4964295;28;20546;-80
2022/08/23 11:26:26;;;;;;;4.50;2.15;;;24.60;99.90;;;;;;4963910;28;20047;-82
2022/08/23 11:29:05;;;;;;;5.07;2.00;;;24.60;99.90;;;;;;4964184;28;20055;-81
2022/08/23 11:32:19;;;;;;;6.55;1.90;;;24.60;99.90;;;;;;4947487;28;20053;-81
2022/08/23 11:35:08;;;;;;;4.88;1.80;;;24.60;99.90;;;;;;4903841;29;20047;-80
2022/08/23 11:37:55;;;;;;;2.78;2.00;;;24.70;99.90;;;;;;4906929;29;20052;-82
2022/08/23 11:40:41;;;;;;;2.72;1.98;;;25.00;99.90;;;;;;4956720;28;20059;-80
2022/08/23 11:43:37;;;;;;;2.47;2.10;;;24.80;99.90;;;;;;4981392;28;20039;-83
2022/08/23 11:46:22;;;;;;;4.03;1.80;;;24.90;99.90;;;;;;4965741;28;20039;-79
2022/08/23 11:49:01;;;;;;;2.47;1.80;;;24.90;99.90;;;;;;4963649;28;20443;-80
2022/08/23 11:52:01;;;;;;;4.38;2.13;;;25.10;99.90;;;;;;4987591;28;20074;-80
2022/08/23 11:54:42;;;;;;;3.55;2.05;;;25.00;99.90;;;;;;4964091;28;20113;-82
2022/08/23 11:57:18;;;;;;;5.22;1.90;;;;;;;;;;4962994;28;20043;-79
2022/08/23 11:59:58;;;;;;;3.55;1.67;;;25.10;99.90;;;;;;4963739;28;20071;-79
2022/08/23 12:02:46;;;;;;;4.60;1.95;;;25.30;99.90;;;;;;4946758;28;20047;-79
2022/08/23 12:05:19;;;;;;;3.55;1.80;;;25.30;99.90;;;;;;4947191;28;20067;-81
2022/08/23 12:08:16;;;;;;;6.03;1.70;;;25.20;99.90;;;;;;4963181;28;20105;-79
2022/08/23 12:10:41;;;;;;;4.25;1.60;;;25.30;99.90;;;;;;4963481;28;20050;-84
2022/08/23 12:13:20;;;;;;;4.85;1.77;;;25.40;99.90;;;;;;4966382;28;20042;-83
2022/08/23 12:16:23;;;;;;;4.88;1.50;;;25.40;99.90;;;;;;4964488;28;20491;-81
2022/08/23 12:18:49;;;;;;;4.30;1.80;;;25.50;99.90;;;;;;4964570;28;20395;-83
2022/08/23 12:21:38;;;;;;;2.50;1.63;;;25.60;99.90;;;;;;4965507;28;20047;-81
2022/08/23 12:24:20;;;;;;;3.97;2.05;;;25.60;99.90;;;;;;4956086;28;20058;-80
2022/08/23 12:26:48;;;;;;;5.68;2.15;;;25.80;99.90;;;;;;4958464;28;20133;-79
2022/08/23 12:29:17;;;;;;;2.78;1.70;;;25.80;99.90;;;;;;4954204;28;20055;-79
2022/08/23 12:32:15;;;;;;;3.83;1.70;;;25.80;99.90;;;;;;4954907;28;20050;-80
2022/08/23 12:34:59;;;;;;;2.25;1.65;;;25.80;99.90;;;;;;4954608;28;20051;-80
2022/08/23 12:37:46;;;;;;;3.42;1.58;;;25.90;99.90;;;;;;4954135;29;20051;-82
2022/08/23 12:40:21;;;;;;;2.58;1.40;;;25.90;99.90;;;;;;4961429;28;20112;-82
2022/08/23 12:42:50;;;;;;;3.25;1.67;;;26.00;99.90;;;;;;4962891;28;20039;-81
2022/08/23 12:45:18;;;;;;;2.75;1.42;;;26.00;99.90;;;;;;4959567;28;20054;-81
2022/08/23 12:47:57;;;;;;;3.17;1.50;;;26.10;99.90;;;;;;4954415;28;20074;-81
2022/08/23 12:50:29;;;;;;;3.17;1.50;;;26.10;99.90;;;;;;4958121;28;20046;-81
2022/08/23 12:53:00;;;;;;;3.08;1.70;;;26.20;99.90;;;;;;4963369;28;20510;-81
2022/08/23 12:55:33;;;;;;;3.33;1.50;;;26.10;99.90;;;;;;4965823;28;20118;-83
2022/08/23 12:57:59;;;;;;;2.15;1.30;;;26.10;99.90;;;;;;4963477;28;20047;-81
2022/08/23 13:00:42;;;;;;;4.65;1.70;;;26.30;99.90;;;;;;4965013;28;20042;-80
2022/08/23 13:03:38;;;;;;;1.73;1.35;;;26.20;99.90;;;;;;4964912;28;20066;-80
2022/08/23 13:06:11;;;;;;;3.78;1.40;;;26.30;99.90;;;;;;4963967;28;20162;-80
2022/08/23 13:08:39;;;;;;;2.92;1.80;;;26.50;99.90;;;;;;4963459;28;20507;-81
2022/08/23 13:11:07;;;;;;;3.03;1.40;;;26.20;99.90;;;;;;4964807;28;20045;-80
2022/08/23 13:13:33;;;;;;;2.60;1.50;;;26.20;99.90;;;;;;4964277;28;20047;-80
2022/08/23 13:16:22;;;;;;;3.65;1.50;;;26.20;99.90;;;;;;4963640;28;20043;-83
2022/08/23 13:18:48;;;;;;;2.38;1.50;;;26.10;99.90;;;;;;4963744;28;20047;-80